Jacksonville International Airport
KJAX : now visible

Airfield :











YOU CAN JOIN US ON...

 
LOGIN :

Register | Disclaimer

   EN    FR    IT 

 









Legend :    VFR   Marginal VFR   IFR   Intensive IFR   Very Intensive IFR
Visi :
Ceiling :
>= 8 km
>= 3000ft
5 to 8 km
1000 to 3000 ft
1500m to 5 km
500 to 1000 ft
800 to 1500m
200 to 500 ft
< 800m
< 200 ft
Symbols :   Thunderstorms  Fog  Heavy snow  Heavy precipitations  Wind > 20 kt







- Airport Elevation : 30 ft
- IATA code : JAX


KJAX - Jacksonville International

CURRENT METAR :
  • 260156Z 06009KT 10SM FEW018 BKN030 BKN250 27/22 A3000 RMK AO2 SLP159 T02670222 $

EXPIRED METARs :
  • 260120Z 05008KT 10SM SCT018 BKN030 BKN250 26/23 A2999 RMK AO2 T02610228 $
  • 260056Z 03006KT 10SM BKN018 BKN030 BKN250 26/22 A2999 RMK AO2 SLP155 T02610222 $
  • 252356Z 04007KT 10SM BKN025 OVC200 27/22 A2998 RMK AO2 SLP151 T02670222 10311 20267 53005 $

TAF KJAX
Valid from the 26 at 00:00 until the 27 at 00:00 UTC


252320Z 2600/2624 06008KT P6SM BKN025 BKN200
FM260300 VRB02KT P6SM BKN250
FM261400 06008KT P6SM VCSH SCT025 OVC040
FM261800 06010KT P6SM VCSH BKN050
PROB30 2618/2624 5SM -TSRA BKN050CB
No reported NOTAMs for that airfield.



MET'MAP, your aeronautical weather chart ! - Copyright ORBIFLY December 2007 - Disclaimer

ORBIFLY MET'MAP TEAM :

Programming & Development : Alexandra Zaïnal
Concept & Development : Baudouin d'Aumeries
Co-Development & Prog : Marc-Olivier Méhu
Technical & hardware support : Manuel Goepfert

Contact : metmap@orbifly.com




SOURCES & CREDITS :

   NOAA       Earth
Advisory